createdAt,value
2016-11-07T00:00:25.019Z,99.99
2016-11-07T00:01:25.101Z,99.99
2016-11-07T00:02:25.101Z,99.99
2016-11-07T00:03:25.106Z,99.99
2016-11-07T00:04:25.034Z,99.99
2016-11-07T00:05:25.107Z,99.99
2016-11-07T00:06:25.052Z,99.99
2016-11-07T00:07:25.049Z,99.99
2016-11-07T00:08:25.034Z,99.99
2016-11-07T00:09:25.144Z,99.99
2016-11-07T00:10:25.114Z,99.99
2016-11-07T00:11:25.058Z,99.99
2016-11-07T00:12:25.054Z,99.99
2016-11-07T00:13:25.122Z,99.99
2016-11-07T00:14:25.346Z,99.99
2016-11-07T00:15:25.068Z,99.99
2016-11-07T00:16:25.153Z,99.99
2016-11-07T00:17:25.140Z,99.99
2016-11-07T00:18:25.078Z,99.99
2016-11-07T00:19:25.079Z,99.99
2016-11-07T00:20:25.155Z,99.99
2016-11-07T00:21:25.151Z,99.99
2016-11-07T00:22:25.151Z,99.99
2016-11-07T00:23:25.155Z,99.99
2016-11-07T00:24:25.084Z,99.99
2016-11-07T00:25:25.093Z,99.99
2016-11-07T00:26:25.099Z,99.99
2016-11-07T00:27:25.171Z,99.99
2016-11-07T00:28:25.198Z,99.99
2016-11-07T00:29:25.097Z,99.99
2016-11-07T00:30:25.292Z,99.99
2016-11-07T00:31:25.181Z,99.99
2016-11-07T00:32:25.186Z,99.99
2016-11-07T00:33:25.184Z,99.99
2016-11-07T00:34:25.191Z,99.99
2016-11-07T00:35:25.199Z,99.99
2016-11-07T00:36:25.111Z,99.99
2016-11-07T00:37:25.138Z,99.99
2016-11-07T00:38:25.190Z,99.99
2016-11-07T00:39:25.193Z,99.99
2016-11-07T00:40:25.208Z,99.99
2016-11-07T00:41:25.133Z,99.99
2016-11-07T00:42:25.210Z,99.99
2016-11-07T00:43:25.214Z,99.99
2016-11-07T00:44:25.144Z,99.99
2016-11-07T00:45:25.154Z,99.99
2016-11-07T00:46:25.249Z,99.99
2016-11-07T00:47:25.170Z,99.99
2016-11-07T00:48:25.231Z,99.99
2016-11-07T00:49:25.234Z,99.99
2016-11-07T00:50:25.165Z,99.99
2016-11-07T00:51:25.235Z,99.99
2016-11-07T00:52:25.244Z,99.99
2016-11-07T00:53:25.165Z,99.99
2016-11-07T00:54:25.249Z,99.99
2016-11-07T00:55:25.168Z,99.99
2016-11-07T00:56:25.178Z,99.99
2016-11-07T00:57:25.259Z,99.99
2016-11-07T00:58:25.261Z,99.99
2016-11-07T00:59:25.261Z,99.99
2016-11-07T01:00:25.184Z,99.99
2016-11-07T01:01:25.192Z,99.99
2016-11-07T01:02:25.368Z,99.99
2016-11-07T01:03:25.201Z,99.99
2016-11-07T01:04:25.269Z,99.99
2016-11-07T01:05:25.217Z,99.99
2016-11-07T01:06:25.274Z,99.99
2016-11-07T01:07:25.289Z,99.99
2016-11-07T01:08:25.226Z,99.99
2016-11-07T01:09:25.277Z,99.99
2016-11-07T01:10:25.289Z,99.99
2016-11-07T01:11:25.224Z,99.99
2016-11-07T01:12:25.218Z,99.99
2016-11-07T01:13:25.297Z,99.99
2016-11-07T01:14:25.304Z,99.99
2016-11-07T01:15:25.291Z,99.99
2016-11-07T01:16:25.227Z,99.99
2016-11-07T01:17:25.234Z,99.99
2016-11-07T01:18:25.425Z,99.99
2016-11-07T01:19:25.242Z,99.99
2016-11-07T01:20:25.315Z,99.99
2016-11-07T01:21:25.250Z,99.99
2016-11-07T01:22:25.265Z,99.99
2016-11-07T01:23:25.328Z,99.99
2016-11-07T01:24:25.324Z,99.99
2016-11-07T01:25:25.252Z,99.99
2016-11-07T01:26:25.270Z,99.99
2016-11-07T01:27:25.266Z,99.99
2016-11-07T01:28:25.263Z,99.99
2016-11-07T01:29:25.262Z,99.99
2016-11-07T01:30:25.337Z,99.99
2016-11-07T01:31:25.277Z,99.99
2016-11-07T01:32:25.278Z,99.99
2016-11-07T01:33:25.283Z,99.99
2016-11-07T01:34:25.399Z,99.99
2016-11-07T01:35:25.279Z,99.99
2016-11-07T01:36:25.285Z,99.99
2016-11-07T01:37:25.361Z,99.99
2016-11-07T01:38:25.293Z,99.99
2016-11-07T01:39:25.375Z,99.99
2016-11-07T01:40:25.376Z,99.99
2016-11-07T01:41:25.367Z,99.99
2016-11-07T01:42:25.371Z,99.99
2016-11-07T01:43:25.379Z,99.99
2016-11-07T01:44:25.374Z,99.99
2016-11-07T01:45:25.318Z,99.99
2016-11-07T01:46:25.320Z,99.99
2016-11-07T01:47:25.385Z,99.99
2016-11-07T01:48:25.399Z,99.99
2016-11-07T01:49:25.315Z,99.99
2016-11-07T01:50:25.507Z,99.99
2016-11-07T01:51:25.395Z,99.99
2016-11-07T01:52:25.402Z,99.99
2016-11-07T01:53:25.335Z,99.99
2016-11-07T01:54:25.336Z,99.99
2016-11-07T01:55:25.406Z,99.99
2016-11-07T01:56:25.335Z,99.99
2016-11-07T01:57:25.338Z,99.99
2016-11-07T01:58:25.428Z,99.99
2016-11-07T01:59:25.411Z,99.99
2016-11-07T02:00:25.427Z,99.99
2016-11-07T02:01:25.355Z,99.99
2016-11-07T02:02:25.436Z,99.99
2016-11-07T02:03:25.358Z,99.99
2016-11-07T02:04:25.363Z,99.99
2016-11-07T02:05:25.365Z,99.99
2016-11-07T02:06:25.547Z,99.99
2016-11-07T02:07:25.441Z,99.99
2016-11-07T02:08:25.377Z,99.99
2016-11-07T02:09:25.379Z,99.99
2016-11-07T02:10:25.464Z,99.99
2016-11-07T02:11:25.376Z,99.99
2016-11-07T02:12:25.386Z,99.99
2016-11-07T02:13:25.457Z,99.99
2016-11-07T02:14:25.391Z,99.99
2016-11-07T02:15:25.465Z,99.99
2016-11-07T02:16:25.394Z,99.99
2016-11-07T02:17:25.477Z,99.99
2016-11-07T02:18:25.398Z,99.99
2016-11-07T02:19:25.479Z,99.99
2016-11-07T02:20:25.484Z,99.99
2016-11-07T02:21:25.408Z,99.99
2016-11-07T02:22:25.536Z,99.99
2016-11-07T02:23:25.410Z,99.99
2016-11-07T02:24:25.487Z,99.99
2016-11-07T02:25:25.505Z,99.99
2016-11-07T02:26:25.492Z,99.99
2016-11-07T02:27:25.428Z,99.99
2016-11-07T02:28:25.500Z,99.99
2016-11-07T02:29:25.500Z,99.99
2016-11-07T02:30:25.442Z,99.99
2016-11-07T02:31:25.441Z,99.99
2016-11-07T02:32:25.514Z,99.99
2016-11-07T02:33:25.436Z,99.99
2016-11-07T02:34:25.441Z,99.99
2016-11-07T02:35:25.513Z,99.99
2016-11-07T02:36:25.530Z,99.99
2016-11-07T02:37:25.519Z,99.99
2016-11-07T02:38:25.642Z,99.99
2016-11-07T02:39:25.544Z,99.99
2016-11-07T02:40:25.467Z,99.99
2016-11-07T02:41:25.463Z,99.99
2016-11-07T02:42:25.536Z,99.99
2016-11-07T02:43:25.540Z,99.99
2016-11-07T02:44:25.551Z,99.99
2016-11-07T02:45:25.590Z,99.97
2016-11-07T02:46:25.558Z,99.99
2016-11-07T02:47:25.479Z,99.99
2016-11-07T02:48:25.487Z,99.73
2016-11-07T02:49:25.482Z,99.91
2016-11-07T02:50:25.484Z,99.91
2016-11-07T02:51:25.566Z,99.99
2016-11-07T02:52:25.640Z,99.91
2016-11-07T02:53:25.504Z,99.91
2016-11-07T02:54:25.771Z,99.54
2016-11-07T02:55:25.570Z,99.97
2016-11-07T02:56:25.506Z,99.99
2016-11-07T02:57:25.575Z,99.82
2016-11-07T02:58:25.584Z,99.99
2016-11-07T02:59:25.534Z,99.97
2016-11-07T03:00:25.584Z,99.99
2016-11-07T03:01:25.598Z,99.99
2016-11-07T03:02:25.522Z,99.44
2016-11-07T03:03:25.592Z,99.35
2016-11-07T03:04:25.616Z,99.4
2016-11-07T03:05:25.591Z,99.49
2016-11-07T03:06:25.532Z,99.16
2016-11-07T03:07:25.608Z,99.06
2016-11-07T03:08:25.542Z,99.06
2016-11-07T03:09:25.614Z,98.68
2016-11-07T03:10:25.660Z,98.87
2016-11-07T03:11:25.547Z,98.92
2016-11-07T03:12:25.628Z,98.87
2016-11-07T03:13:25.560Z,98.16
2016-11-07T03:14:25.562Z,98.49
2016-11-07T03:15:25.567Z,98.45
2016-11-07T03:16:25.633Z,98.4
2016-11-07T03:17:25.564Z,98.21
2016-11-07T03:18:25.564Z,98.54
2016-11-07T03:19:25.656Z,98.11
2016-11-07T03:20:25.571Z,98.3
2016-11-07T03:21:25.573Z,98.68
2016-11-07T03:22:25.650Z,98.4
2016-11-07T03:23:25.664Z,98.3
2016-11-07T03:24:25.578Z,98.11
2016-11-07T03:25:25.662Z,97.83
2016-11-07T03:26:25.790Z,98.07
2016-11-07T03:27:25.655Z,97.83
2016-11-07T03:28:25.594Z,97.92
2016-11-07T03:29:25.599Z,97.64
2016-11-07T03:30:25.607Z,97.45
2016-11-07T03:31:25.675Z,97.64
2016-11-07T03:32:25.682Z,97.36
2016-11-07T03:33:25.682Z,97.41
2016-11-07T03:34:25.618Z,97.55
2016-11-07T03:35:25.611Z,97.12
2016-11-07T03:36:25.689Z,97.07
2016-11-07T03:37:25.690Z,96.88
2016-11-07T03:38:25.689Z,96.69
2016-11-07T03:39:25.621Z,96.78
2016-11-07T03:40:25.635Z,96.12
2016-11-07T03:41:25.703Z,96.69
2016-11-07T03:42:25.735Z,96.41
2016-11-07T03:43:25.713Z,96.31
2016-11-07T03:44:25.637Z,95.74
2016-11-07T03:45:25.639Z,95.74
2016-11-07T03:46:25.646Z,95.74
2016-11-07T03:47:25.719Z,95.55
2016-11-07T03:48:25.648Z,95.55
2016-11-07T03:49:25.722Z,95.17
2016-11-07T03:50:25.741Z,95.65
2016-11-07T03:51:25.732Z,95.55
2016-11-07T03:52:25.668Z,95.55
2016-11-07T03:53:25.671Z,95.27
2016-11-07T03:54:25.664Z,95.27
2016-11-07T03:55:25.671Z,95.17
2016-11-07T03:56:25.740Z,94.89
2016-11-07T03:57:25.676Z,95.17
2016-11-07T03:58:25.966Z,95.27
2016-11-07T03:59:25.679Z,94.79
2016-11-07T04:00:25.677Z,94.89
2016-11-07T04:01:25.757Z,94.23
2016-11-07T04:02:25.751Z,94.51
2016-11-07T04:03:25.693Z,94.13
2016-11-07T04:04:25.772Z,94.79
2016-11-07T04:05:25.771Z,94.42
2016-11-07T04:06:25.703Z,94.42
2016-11-07T04:07:25.701Z,93.75
2016-11-07T04:08:25.773Z,94.03
2016-11-07T04:09:25.779Z,93.75
2016-11-07T04:10:25.775Z,93.75
2016-11-07T04:11:25.798Z,93.56
2016-11-07T04:12:25.722Z,93.65
2016-11-07T04:13:25.716Z,93.56
2016-11-07T04:14:25.916Z,93.65
2016-11-07T04:15:25.726Z,93.84
2016-11-07T04:16:25.794Z,92.99
2016-11-07T04:17:25.728Z,93.27
2016-11-07T04:18:25.794Z,93.37
2016-11-07T04:19:25.807Z,93.18
2016-11-07T04:20:25.729Z,92.8
2016-11-07T04:21:25.738Z,93.08
2016-11-07T04:22:25.810Z,92.99
2016-11-07T04:23:25.743Z,92.42
2016-11-07T04:24:25.752Z,92.61
2016-11-07T04:25:25.816Z,92.61
2016-11-07T04:26:25.754Z,92.71
2016-11-07T04:27:25.830Z,92.52
2016-11-07T04:28:25.760Z,92.71
2016-11-07T04:29:25.766Z,92.61
2016-11-07T04:30:25.940Z,92.42
2016-11-07T04:31:25.771Z,92.42
2016-11-07T04:32:25.774Z,92.52
2016-11-07T04:33:25.839Z,92.61
2016-11-07T04:34:25.846Z,92.23
2016-11-07T04:35:25.850Z,92.23
2016-11-07T04:36:25.858Z,91.94
2016-11-07T04:37:25.791Z,92.14
2016-11-07T04:38:25.802Z,91.94
2016-11-07T04:39:25.782Z,91.75
2016-11-07T04:40:25.868Z,92.04
2016-11-07T04:41:25.869Z,91.38
2016-11-07T04:42:25.867Z,91.66
2016-11-07T04:43:25.804Z,91.85
2016-11-07T04:44:25.875Z,91.38
2016-11-07T04:45:25.804Z,91.47
2016-11-07T04:46:26.010Z,91.47
2016-11-07T04:47:25.811Z,91.66
2016-11-07T04:48:25.819Z,91.28
2016-11-07T04:49:25.899Z,91.66
2016-11-07T04:50:25.846Z,91.56
2016-11-07T04:51:25.819Z,91.38
2016-11-07T04:52:25.896Z,91
2016-11-07T04:53:25.826Z,91.19
2016-11-07T04:54:25.907Z,91
2016-11-07T04:55:25.833Z,91
2016-11-07T04:56:25.910Z,90.81
2016-11-07T04:57:25.846Z,90.9
2016-11-07T04:58:25.912Z,91.19
2016-11-07T04:59:25.850Z,91.19
2016-11-07T05:00:25.861Z,90.9
2016-11-07T05:01:25.847Z,91
2016-11-07T05:02:26.048Z,90.33
2016-11-07T05:03:25.930Z,90.9
2016-11-07T05:04:25.863Z,90.33
2016-11-07T05:05:25.940Z,90.52
2016-11-07T05:06:25.862Z,90.33
2016-11-07T05:07:25.929Z,90.33
2016-11-07T05:08:25.949Z,90.33
2016-11-07T05:09:25.953Z,90.43
2016-11-07T05:10:25.945Z,90.05
2016-11-07T05:11:25.885Z,90.05
2016-11-07T05:12:25.951Z,90.05
2016-11-07T05:13:25.884Z,90.05
2016-11-07T05:14:25.955Z,90.43
2016-11-07T05:15:25.963Z,89.86
2016-11-07T05:16:25.894Z,89.95
2016-11-07T05:17:25.900Z,89.58
2016-11-07T05:18:26.013Z,89.86
2016-11-07T05:19:25.976Z,90.05
2016-11-07T05:20:25.973Z,90.24
2016-11-07T05:21:25.978Z,90.24
2016-11-07T05:22:25.909Z,89.95
2016-11-07T05:23:25.914Z,90.05
2016-11-07T05:24:25.921Z,90
2016-11-07T05:25:25.914Z,89.58
2016-11-07T05:26:25.985Z,89.39
2016-11-07T05:27:25.995Z,89.67
2016-11-07T05:28:25.950Z,89.2
2016-11-07T05:29:25.991Z,89.76
2016-11-07T05:30:26.000Z,89.67
2016-11-07T05:31:26.019Z,89.39
2016-11-07T05:32:26.009Z,89.29
2016-11-07T05:33:25.937Z,89.39
2016-11-07T05:34:26.123Z,89.39
2016-11-07T05:35:25.943Z,89.29
2016-11-07T05:36:26.020Z,89
2016-11-07T05:37:25.949Z,89.39
2016-11-07T05:38:26.033Z,89.2
2016-11-07T05:39:26.024Z,89.58
2016-11-07T05:40:26.032Z,89.39
2016-11-07T05:41:26.031Z,89.2
2016-11-07T05:42:26.048Z,89.29
2016-11-07T05:43:26.029Z,88.91
2016-11-07T05:44:25.962Z,89.1
2016-11-07T05:45:25.970Z,89.1
2016-11-07T05:46:25.972Z,88.81
2016-11-07T05:47:26.056Z,89
2016-11-07T05:48:25.974Z,88.62
2016-11-07T05:49:25.986Z,88.62
2016-11-07T05:50:26.096Z,88.53
2016-11-07T05:51:26.069Z,88.62
2016-11-07T05:52:25.992Z,88.06
2016-11-07T05:53:26.062Z,88.24
2016-11-07T05:54:26.075Z,88.06
2016-11-07T05:55:26.071Z,88.34
2016-11-07T05:56:25.995Z,88.34
2016-11-07T05:57:26.002Z,88.43
2016-11-07T05:58:26.004Z,88.24
2016-11-07T05:59:26.076Z,88.24
2016-11-07T06:00:26.008Z,88.15
2016-11-07T06:01:26.017Z,88.24
2016-11-07T06:02:26.082Z,88.24
2016-11-07T06:03:26.094Z,88.34
2016-11-07T06:04:26.024Z,87.68
2016-11-07T06:05:26.091Z,87.77
2016-11-07T06:06:26.157Z,87.96
2016-11-07T06:07:26.103Z,87.87
2016-11-07T06:08:26.121Z,87.96
2016-11-07T06:09:26.117Z,87.68
2016-11-07T06:10:26.037Z,87.68
2016-11-07T06:11:26.035Z,87.77
2016-11-07T06:12:26.121Z,87.68
2016-11-07T06:13:26.047Z,87.49
2016-11-07T06:14:26.138Z,87.58
2016-11-07T06:15:26.046Z,87.58
2016-11-07T06:16:26.126Z,87.87
2016-11-07T06:17:26.124Z,87.49
2016-11-07T06:18:26.138Z,87.3
2016-11-07T06:19:26.063Z,87.2
2016-11-07T06:20:26.060Z,87.49
2016-11-07T06:21:26.163Z,87.3
2016-11-07T06:22:26.268Z,87.49
2016-11-07T06:23:26.074Z,86.72
2016-11-07T06:24:26.152Z,87.3
2016-11-07T06:25:26.078Z,87.2
2016-11-07T06:26:26.156Z,87.2
2016-11-07T06:27:26.089Z,86.91
2016-11-07T06:28:26.091Z,87.01
2016-11-07T06:29:26.162Z,87.01
2016-11-07T06:30:26.310Z,86.54
2016-11-07T06:31:26.270Z,86.54
2016-11-07T06:32:26.202Z,86.82
2016-11-07T06:33:26.392Z,86.82
2016-11-07T06:34:26.401Z,86.72
2016-11-07T06:35:26.177Z,86.63
2016-11-07T06:36:26.180Z,86.82
2016-11-07T06:37:26.108Z,86.91
2016-11-07T06:38:26.411Z,86.82
2016-11-07T06:39:26.192Z,86.82
2016-11-07T06:40:26.204Z,86.82
2016-11-07T06:41:26.203Z,86.35
2016-11-07T06:42:26.137Z,86.16
2016-11-07T06:43:26.174Z,86.16
2016-11-07T06:44:26.218Z,86.44
2016-11-07T06:45:26.143Z,85.87
2016-11-07T06:46:26.144Z,85.87
2016-11-07T06:47:26.139Z,85.87
2016-11-07T06:48:26.219Z,85.59
2016-11-07T06:49:26.146Z,85.21
2016-11-07T06:50:26.218Z,85.3
2016-11-07T06:51:26.230Z,85.63
2016-11-07T06:52:26.155Z,85.49
2016-11-07T06:53:26.233Z,84.92
2016-11-07T06:54:26.349Z,85.11
2016-11-07T06:55:26.234Z,84.83
2016-11-07T06:56:26.250Z,84.92
2016-11-07T06:57:26.168Z,85.02
2016-11-07T06:58:26.247Z,84.97
2016-11-07T06:59:26.179Z,84.97
2016-11-07T07:00:26.251Z,84.97
2016-11-07T07:01:26.174Z,84.87
2016-11-07T07:02:26.177Z,84.78
2016-11-07T07:03:26.256Z,84.78
2016-11-07T07:04:26.265Z,84.92
2016-11-07T07:05:26.208Z,84.97
2016-11-07T07:06:26.193Z,85.16
2016-11-07T07:07:26.206Z,85.06
2016-11-07T07:08:26.208Z,85.06
2016-11-07T07:09:26.202Z,85.16
2016-11-07T07:10:26.396Z,84.87
2016-11-07T07:11:26.214Z,84.78
2016-11-07T07:12:26.279Z,84.59
2016-11-07T07:13:26.215Z,84.68
2016-11-07T07:14:26.215Z,84.3
2016-11-07T07:15:26.297Z,84.21
2016-11-07T07:16:26.291Z,84.4
2016-11-07T07:17:26.223Z,84.21
2016-11-07T07:18:26.304Z,84.49
2016-11-07T07:19:26.240Z,83.92
2016-11-07T07:20:26.233Z,84.01
2016-11-07T07:21:26.335Z,83.83
2016-11-07T07:22:26.239Z,83.92
2016-11-07T07:23:26.337Z,83.73
2016-11-07T07:24:26.247Z,83.92
2016-11-07T07:25:26.314Z,83.92
2016-11-07T07:26:26.364Z,84.01
2016-11-07T07:27:26.258Z,83.83
2016-11-07T07:28:26.252Z,84.01
2016-11-07T07:29:26.329Z,83.92
2016-11-07T07:30:26.336Z,83.36
2016-11-07T07:31:26.255Z,83.26
2016-11-07T07:32:26.264Z,83.26
2016-11-07T07:33:26.263Z,83.16
2016-11-07T07:34:26.267Z,83.07
2016-11-07T07:35:26.361Z,83.16
2016-11-07T07:36:26.314Z,82.59
2016-11-07T07:37:26.357Z,83.07
2016-11-07T07:38:26.355Z,82.78
2016-11-07T07:39:26.367Z,83.07
2016-11-07T07:40:26.306Z,82.78
2016-11-07T07:41:26.371Z,82.97
2016-11-07T07:42:26.487Z,82.4
2016-11-07T07:43:26.288Z,82.5
2016-11-07T07:44:26.304Z,82.69
2016-11-07T07:45:26.374Z,82.4
2016-11-07T07:46:26.376Z,82.5
2016-11-07T07:47:26.308Z,82.78
2016-11-07T07:48:26.395Z,82.4
2016-11-07T07:49:26.331Z,82.5
2016-11-07T07:50:26.379Z,82.31
2016-11-07T07:51:26.398Z,82.31
2016-11-07T07:52:26.330Z,82.31
2016-11-07T07:53:26.412Z,82.5
2016-11-07T07:54:26.329Z,82.31
2016-11-07T07:55:26.351Z,82.31
2016-11-07T07:56:26.405Z,82.5
2016-11-07T07:57:26.424Z,82.31
2016-11-07T07:58:26.365Z,82.21
2016-11-07T07:59:26.346Z,82.4
2016-11-07T08:00:26.341Z,82.31
2016-11-07T08:01:26.346Z,82.5
2016-11-07T08:02:26.343Z,82.31
2016-11-07T08:03:26.352Z,82.31
2016-11-07T08:04:26.438Z,82.21
2016-11-07T08:05:26.441Z,82.21
2016-11-07T08:06:26.437Z,82.78
2016-11-07T08:07:26.360Z,82.78
2016-11-07T08:08:26.402Z,82.31
2016-11-07T08:09:26.365Z,82.5
2016-11-07T08:10:26.372Z,82.69
2016-11-07T08:11:26.451Z,82.88
2016-11-07T08:12:26.460Z,82.5
2016-11-07T08:13:26.389Z,82.78
2016-11-07T08:14:26.586Z,82.97
2016-11-07T08:15:26.460Z,82.88
2016-11-07T08:16:26.390Z,82.5
2016-11-07T08:17:26.387Z,82.59
2016-11-07T08:18:26.462Z,82.97
2016-11-07T08:19:26.395Z,82.88
2016-11-07T08:20:26.474Z,83.16
2016-11-07T08:21:26.476Z,83.07
2016-11-07T08:22:26.406Z,83.16
2016-11-07T08:23:26.406Z,82.5
2016-11-07T08:24:26.479Z,82.5
2016-11-07T08:25:26.413Z,82.5
2016-11-07T08:26:26.503Z,82.69
2016-11-07T08:27:26.411Z,82.5
2016-11-07T08:28:26.500Z,82.21
2016-11-07T08:29:26.524Z,82.03
2016-11-07T08:30:26.619Z,81.84
2016-11-07T08:31:26.498Z,81.84
2016-11-07T08:32:26.539Z,81.87
2016-11-07T08:33:26.434Z,81.84
2016-11-07T08:34:26.432Z,81.65
2016-11-07T08:35:26.441Z,81.4
2016-11-07T08:36:26.509Z,81.3
2016-11-07T08:37:26.517Z,80.93
2016-11-07T08:38:26.520Z,81.59
2016-11-07T08:39:26.527Z,81.49
2016-11-07T08:40:26.537Z,81.3
2016-11-07T08:41:26.530Z,81.21
2016-11-07T08:42:26.619Z,81.49
2016-11-07T08:43:26.677Z,81.68
2016-11-07T08:44:26.536Z,82.64
2016-11-07T08:45:26.542Z,83.3
2016-11-07T08:46:26.735Z,83.26
2016-11-07T08:47:26.553Z,82.73
2016-11-07T08:48:26.494Z,82.35
2016-11-07T08:49:26.484Z,81.97
2016-11-07T08:50:26.485Z,81.49
2016-11-07T08:51:26.513Z,81.12
2016-11-07T08:52:26.489Z,81.4
2016-11-07T08:53:26.566Z,81.4
2016-11-07T08:54:26.527Z,80.93
2016-11-07T08:55:26.565Z,80.74
2016-11-07T08:56:26.503Z,80.74
2016-11-07T08:57:26.514Z,81.59
2016-11-07T08:58:26.510Z,81.59
2016-11-07T08:59:26.590Z,81.4
2016-11-07T09:00:26.509Z,81.78
2016-11-07T09:01:26.812Z,81.78
2016-11-07T09:02:28.280Z,81.87
2016-11-07T09:03:26.567Z,82.07
2016-11-07T09:04:26.805Z,82.07
2016-11-07T09:05:26.866Z,83.3
2016-11-07T09:06:26.536Z,83.2
2016-11-07T09:07:26.566Z,82.82
2016-11-07T09:08:26.799Z,82.64
2016-11-07T09:09:26.717Z,85.68
2016-11-07T09:10:26.653Z,84.44
2016-11-07T09:11:26.640Z,84.16
2016-11-07T09:12:26.553Z,83.87
2016-11-07T09:13:26.602Z,82.16
2016-11-07T09:14:26.638Z,82.07
2016-11-07T09:15:26.566Z,82.26
2016-11-07T09:16:26.558Z,81.97
2016-11-07T09:17:26.661Z,82.26
2016-11-07T09:18:26.780Z,84.16
2016-11-07T09:19:26.564Z,83.78
2016-11-07T09:20:26.692Z,82.82
2016-11-07T09:21:26.580Z,83.39
2016-11-07T09:22:26.663Z,84.25
2016-11-07T09:23:26.594Z,83.78
2016-11-07T09:24:26.698Z,82.54
2016-11-07T09:25:26.593Z,82.92
2016-11-07T09:26:26.684Z,83.11
2016-11-07T09:27:26.672Z,84.16
2016-11-07T09:28:26.623Z,83.97
2016-11-07T09:29:26.714Z,84.91
2016-11-07T09:30:26.596Z,83.39
2016-11-07T09:31:26.723Z,83.39
2016-11-07T09:32:26.698Z,81.68
2016-11-07T09:33:26.627Z,81.59
2016-11-07T09:34:26.804Z,81.3
2016-11-07T09:35:26.726Z,81.68
2016-11-07T09:36:26.690Z,82.26
2016-11-07T09:37:26.619Z,81.21
2016-11-07T09:38:26.775Z,81.59
2016-11-07T09:39:26.624Z,81.12
2016-11-07T09:40:26.695Z,82.16
2016-11-07T09:41:26.710Z,81.59
2016-11-07T09:42:26.623Z,81.68
2016-11-07T09:43:26.683Z,82.16
2016-11-07T09:44:26.674Z,82.07
2016-11-07T09:45:26.632Z,81.49
2016-11-07T09:46:26.630Z,81.4
2016-11-07T09:47:26.727Z,82.45
2016-11-07T09:48:26.729Z,82.07
2016-11-07T09:49:26.644Z,81.12
2016-11-07T09:50:26.886Z,82.16
2016-11-07T09:51:26.769Z,81.78
2016-11-07T09:52:26.731Z,80.83
2016-11-07T09:53:26.733Z,81.12
2016-11-07T09:54:26.753Z,81.97
2016-11-07T09:55:26.753Z,81.68
2016-11-07T09:56:26.687Z,82.07
2016-11-07T09:57:26.792Z,81.87
2016-11-07T09:58:26.788Z,81.4
2016-11-07T09:59:26.779Z,81.21
2016-11-07T10:00:26.729Z,81.12
2016-11-07T10:01:26.777Z,80.35
2016-11-07T10:02:26.810Z,80.74
2016-11-07T10:03:26.695Z,82.07
2016-11-07T10:04:26.771Z,82.26
2016-11-07T10:05:26.773Z,81.21
2016-11-07T10:06:26.818Z,79.88
2016-11-07T10:07:26.720Z,79.6
2016-11-07T10:08:26.806Z,79.97
2016-11-07T10:09:26.701Z,80.16
2016-11-07T10:10:26.718Z,80.26
2016-11-07T10:11:26.794Z,80.07
2016-11-07T10:12:26.711Z,78.93
2016-11-07T10:13:26.721Z,78.17
2016-11-07T10:14:26.882Z,79.12
2016-11-07T10:15:26.795Z,78.45
2016-11-07T10:16:26.729Z,77.6
2016-11-07T10:17:26.798Z,78.74
2016-11-07T10:18:26.738Z,80.26
2016-11-07T10:19:26.917Z,79.22
2016-11-07T10:20:26.741Z,77.79
2016-11-07T10:21:26.856Z,77.51
2016-11-07T10:22:27.086Z,78.36
2016-11-07T10:23:26.766Z,78.55
2016-11-07T10:24:27.002Z,78.55
2016-11-07T10:25:26.855Z,78.83
2016-11-07T10:26:26.797Z,78.45
2016-11-07T10:27:30.096Z,77.89
2016-11-07T10:28:26.902Z,78.45
2016-11-07T10:29:26.837Z,78.83
2016-11-07T10:30:26.941Z,78.45
2016-11-07T10:31:26.858Z,79.41
2016-11-07T10:32:26.808Z,79.5
2016-11-07T10:33:26.892Z,78.74
2016-11-07T10:34:26.773Z,78.17
2016-11-07T10:35:26.863Z,77.6
2016-11-07T10:36:26.884Z,77.41
2016-11-07T10:37:26.798Z,77.22
2016-11-07T10:38:26.867Z,76.93
2016-11-07T10:39:26.795Z,77.22
2016-11-07T10:40:26.897Z,76.93
2016-11-07T10:41:26.889Z,76.65
2016-11-07T10:42:26.896Z,77.12
2016-11-07T10:43:26.895Z,76.08
2016-11-07T10:44:26.896Z,75.99
2016-11-07T10:45:26.989Z,75.79
2016-11-07T10:46:26.903Z,75.79
2016-11-07T10:47:26.809Z,76.27
2016-11-07T10:48:26.895Z,76.65
2016-11-07T10:49:26.880Z,76.65
2016-11-07T10:50:27.022Z,76.46
2016-11-07T10:51:28.743Z,76.84
2016-11-07T10:52:31.478Z,76.27
2016-11-07T10:53:37.859Z,75.99
2016-11-07T10:54:44.178Z,75.79
2016-11-07T10:55:26.845Z,75.23
2016-11-07T10:56:26.920Z,74.85
2016-11-07T10:57:27.538Z,75.13
2016-11-07T10:58:26.835Z,76.46
2016-11-07T10:59:28.311Z,76.27
2016-11-07T11:00:27.860Z,79.31
2016-11-07T11:01:26.852Z,79.6
2016-11-07T11:02:26.874Z,84.16
2016-11-07T11:03:26.862Z,81.02
2016-11-07T11:04:26.878Z,81.21
2016-11-07T11:05:26.903Z,79.88
2016-11-07T11:06:26.964Z,80.26
2016-11-07T11:07:27.056Z,78.64
2016-11-07T11:08:26.998Z,77.6
2016-11-07T11:09:26.875Z,76.56
2016-11-07T11:10:26.947Z,76.99
2016-11-07T11:11:26.944Z,77.12
2016-11-07T11:12:26.889Z,76.08
2016-11-07T11:13:26.882Z,75.95
2016-11-07T11:14:27.008Z,76.08
2016-11-07T11:15:27.115Z,75.6
2016-11-07T11:16:27.400Z,75.32
2016-11-07T11:17:26.981Z,76.08
2016-11-07T11:18:26.938Z,75.23
2016-11-07T11:19:26.992Z,74.85
2016-11-07T11:20:27.038Z,74.47
2016-11-07T11:21:27.063Z,74.27
2016-11-07T11:22:26.978Z,73.9
2016-11-07T11:23:28.614Z,74.85
2016-11-07T11:24:27.046Z,74.75
2016-11-07T11:25:27.007Z,74.75
2016-11-07T11:26:26.923Z,74.33
2016-11-07T11:27:27.036Z,73.86
2016-11-07T11:28:26.955Z,74.24
2016-11-07T11:29:26.964Z,73.52
2016-11-07T11:30:27.022Z,74.37
2016-11-07T11:31:27.063Z,74.24
2016-11-07T11:32:27.045Z,73.76
2016-11-07T11:33:26.960Z,73.1
2016-11-07T11:34:27.040Z,71.96
2016-11-07T11:35:27.054Z,73.99
2016-11-07T11:36:27.032Z,75.28
2016-11-07T11:37:27.025Z,76.9
2016-11-07T11:38:26.976Z,76.8
2016-11-07T11:39:30.347Z,75.47
2016-11-07T11:40:26.986Z,74.33
2016-11-07T11:41:27.032Z,73.96
2016-11-07T11:42:27.068Z,74.81
2016-11-07T11:43:27.047Z,74.71
2016-11-07T11:44:26.983Z,74.33
2016-11-07T11:45:27.045Z,75.76
2016-11-07T11:46:26.999Z,76.23
2016-11-07T11:47:27.168Z,75.19
2016-11-07T11:48:27.060Z,75.28
2016-11-07T11:49:27.041Z,76.8
2016-11-07T11:50:27.104Z,76.8
2016-11-07T11:51:27.086Z,74.81
2016-11-07T11:52:26.999Z,74.81
2016-11-07T11:53:27.008Z,75
2016-11-07T11:54:27.073Z,74.15
2016-11-07T11:55:27.070Z,74.9
2016-11-07T11:56:27.044Z,73.96
2016-11-07T11:57:27.102Z,72.53
2016-11-07T11:58:27.092Z,73
2016-11-07T11:59:27.007Z,72.63
2016-11-07T12:00:27.095Z,72.25
2016-11-07T12:01:27.019Z,72.81
2016-11-07T12:02:27.089Z,72.53
2016-11-07T12:03:27.059Z,72.25
2016-11-07T12:04:27.023Z,74.43
2016-11-07T12:05:27.030Z,74.43
2016-11-07T12:06:27.128Z,73.29
2016-11-07T12:07:27.042Z,73.29
2016-11-07T12:08:27.062Z,73.96
2016-11-07T12:09:27.054Z,74.43
2016-11-07T12:10:27.059Z,74.33
2016-11-07T12:11:27.119Z,73.96
2016-11-07T12:12:27.110Z,74.43
2016-11-07T12:13:27.047Z,73.38
2016-11-07T12:14:27.050Z,73.67
2016-11-07T12:15:27.152Z,73.76
2016-11-07T12:16:27.049Z,72.44
2016-11-07T12:17:27.052Z,72.25
2016-11-07T12:18:27.062Z,73
2016-11-07T12:19:27.084Z,73.29
2016-11-07T12:20:27.129Z,74.05
2016-11-07T12:21:27.143Z,74.24
2016-11-07T12:22:27.154Z,74.15
2016-11-07T12:23:27.134Z,75.95
2016-11-07T12:24:27.095Z,73.1
2016-11-07T12:25:27.165Z,76.42
2016-11-07T12:26:27.095Z,74.52
2016-11-07T12:27:27.079Z,74.05
2016-11-07T12:28:27.169Z,73.67
2016-11-07T12:29:27.182Z,72.91
2016-11-07T12:30:27.111Z,73.38
2016-11-07T12:31:27.147Z,72.91
2016-11-07T12:32:27.107Z,73.76
2016-11-07T12:33:27.168Z,72.63
2016-11-07T12:34:27.259Z,72.53
2016-11-07T12:35:27.131Z,72.72
2016-11-07T12:36:27.207Z,72.72
2016-11-07T12:37:27.182Z,72.81
2016-11-07T12:38:27.182Z,74.05
2016-11-07T12:39:27.192Z,73.38
2016-11-07T12:40:27.122Z,72.06
2016-11-07T12:41:27.222Z,71.3
2016-11-07T12:42:27.218Z,71.3
2016-11-07T12:43:27.141Z,71.48
2016-11-07T12:44:27.147Z,72.63
2016-11-07T12:45:27.144Z,75.57
2016-11-07T12:46:27.141Z,73.67
2016-11-07T12:47:27.216Z,74.15
2016-11-07T12:48:27.235Z,73.86
2016-11-07T12:49:27.232Z,72.81
2016-11-07T12:50:27.826Z,71.96
2016-11-07T12:51:27.225Z,71.3
2016-11-07T12:52:27.180Z,71.2
2016-11-07T12:53:27.167Z,71.01
2016-11-07T12:54:27.164Z,71.39
2016-11-07T12:55:27.199Z,71.67